PST,Max TemperatureF,Mean TemperatureF,Min TemperatureF,Max Dew PointF,MeanDew PointF,Min DewpointF,Max Humidity, Mean Humidity, Min Humidity, Max Sea Level PressureIn, Mean Sea Level PressureIn, Min Sea Level PressureIn, Max VisibilityMiles, Mean VisibilityMiles, Min VisibilityMiles, Max Wind SpeedMPH, Mean Wind SpeedMPH, Max Gust SpeedMPH,PrecipitationIn, CloudCover, Events, WindDirDegrees
2013-2-1,39,32,24,34,29,22,100,88,76,30.49,30.36,30.17,10,4,0,12,3,14,0.00,6,Fog,202
2013-2-2,35,30,24,31,28,21,92,87,82,30.53,30.43,30.28,0,0,0,9,5,12,0.00,6,Fog,41
2013-2-3,44,36,28,34,30,25,100,88,75,30.26,30.18,30.09,6,1,0,8,2,10,0.00,8,Fog,163
2013-2-4,39,34,29,34,31,28,100,90,79,30.15,30.06,29.95,10,3,0,14,5,20,0.00,7,Fog,173
2013-2-5,41,35,29,34,32,28,100,90,79,29.98,29.89,29.83,10,7,1,17,7,21,T,6,Fog-Rain,171
2013-2-6,42,38,34,32,31,29,89,77,65,30.07,30.01,29.91,10,10,10,22,10,28,0.00,7,,195
2013-2-7,40,37,33,36,31,29,89,80,70,30.05,29.96,29.91,10,9,3,14,6,17,0.02,8,Rain-Snow,164
2013-2-8,38,34,29,32,30,27,96,89,82,30.14,30.09,30.00,10,6,0,10,5,14,0.02,7,Fog-Snow,220
2013-2-9,34,29,24,28,26,24,100,88,75,30.23,30.11,30.02,10,6,0,10,3,12,0.00,5,Fog,206
2013-2-10,33,27,21,28,25,19,100,88,75,30.31,30.25,30.16,10,5,0,7,1,9,0.00,6,Fog,88
2013-2-11,38,32,26,29,27,25,92,78,64,30.25,30.22,30.16,10,10,8,9,2,12,0.00,7,,184
2013-2-12,43,37,31,36,31,28,92,80,67,30.32,30.25,30.17,10,7,0,21,9,28,0.00,8,,199
2013-2-13,44,35,26,34,29,23,92,74,55,30.37,30.23,30.12,10,10,10,22,12,26,0.00,4,,236
2013-2-14,41,33,25,31,27,21,92,76,59,30.56,30.48,30.34,10,10,10,10,4,14,0.00,4,,190
2013-2-15,50,38,26,34,29,24,92,74,56,30.57,30.46,30.28,10,10,7,7,2,9,0.00,3,Fog,74
2013-2-16,45,37,28,37,31,27,92,79,65,30.27,30.06,29.92,10,10,9,18,8,22,T,5,Rain,205
2013-2-17,43,36,28,30,26,23,85,67,49,30.12,30.06,29.96,10,10,3,20,10,25,T,5,Snow,243
2013-2-18,41,34,26,27,24,21,85,66,46,30.11,29.97,29.80,10,10,10,13,5,16,0.00,6,,123
2013-2-19,35,31,27,32,29,25,100,88,75,29.89,29.77,29.69,10,4,0,9,4,10,0.16,7,Snow,304
2013-2-20,37,33,28,29,26,17,92,70,47,30.01,29.95,29.86,10,7,0,12,5,16,T,6,Fog-Snow,218
2013-2-21,37,32,27,32,28,23,92,84,75,30.04,29.99,29.92,10,8,1,20,9,24,0.04,7,Fog-Snow,195
2013-2-22,38,34,30,34,30,24,96,83,70,30.00,29.82,29.58,10,6,0,30,16,38,0.22,8,Fog-Rain-Snow,193
2013-2-23,42,35,27,26,23,21,78,62,45,30.23,29.99,29.72,10,10,10,26,12,32,0.00,4,,228
2013-2-24,38,31,24,27,25,22,92,78,64,30.33,30.25,30.07,10,10,10,18,9,23,0.00,5,,177
2013-2-25,42,37,31,33,28,22,92,76,59,30.12,29.96,29.84,10,8,1,25,15,35,0.13,8,Snow,207
2013-2-26,41,33,25,26,24,22,92,70,48,30.33,30.27,30.14,10,10,10,20,8,24,0.00,6,,180
2013-2-27,44,38,32,29,26,24,75,62,49,30.29,30.25,30.16,10,10,10,15,6,18,T,7,Snow,178
2013-2-28,40,37,34,39,35,29,100,88,75,30.37,30.31,30.22,10,6,0,13,6,21,0.15,8,Rain,142